createdAt,value
2023-02-22T00:00:23.078Z,21.97
2023-02-22T00:03:32.529Z,21.53
2023-02-22T00:06:37.882Z,22.23
2023-02-22T00:09:41.575Z,22.10
2023-02-22T00:12:45.451Z,23.67
2023-02-22T00:15:49.825Z,22.43
2023-02-22T00:18:53.888Z,22.87
2023-02-22T00:21:59.208Z,23.10
2023-02-22T00:25:03.127Z,24.53
2023-02-22T00:28:07.308Z,22.60
2023-02-22T00:31:11.110Z,22.40
2023-02-22T00:34:16.476Z,22.03
2023-02-22T00:37:22.210Z,21.37
2023-02-22T00:40:30.600Z,21.77
2023-02-22T00:43:34.482Z,22.33
2023-02-22T00:46:38.372Z,20.83
2023-02-22T00:49:42.151Z,20.60
2023-02-22T00:52:48.147Z,21.87
2023-02-22T00:55:52.455Z,20.67
2023-02-22T00:58:56.330Z,20.93
2023-02-22T01:02:00.242Z,20.93
2023-02-22T01:05:04.372Z,20.70
2023-02-22T01:08:14.352Z,21.80
2023-02-22T01:11:19.461Z,20.17
2023-02-22T01:14:23.903Z,21.17
2023-02-22T01:17:28.630Z,21.13
2023-02-22T01:20:33.948Z,21.67
2023-02-22T01:23:39.215Z,20.13
2023-02-22T01:26:43.431Z,22.23
2023-02-22T01:29:50.184Z,20.70
2023-02-22T01:32:54.035Z,21.17
2023-02-22T01:35:58.038Z,21.47
2023-02-22T01:39:03.534Z,21.30
2023-02-22T01:42:09.872Z,20.53
2023-02-22T01:45:44.408Z,21.53
2023-02-22T01:48:55.364Z,19.00
2023-02-22T01:52:04.370Z,19.60
2023-02-22T01:55:11.131Z,19.27
2023-02-22T01:58:17.776Z,20.00
2023-02-22T02:01:25.413Z,18.33
2023-02-22T02:04:30.237Z,17.97
2023-02-22T02:07:34.103Z,19.70
2023-02-22T02:10:39.501Z,19.47
2023-02-22T02:13:43.414Z,18.37
2023-02-22T02:16:53.467Z,18.47
2023-02-22T02:20:11.670Z,18.20
2023-02-22T02:24:13.397Z,18.67
2023-02-22T02:27:24.212Z,17.47
2023-02-22T02:31:06.407Z,18.77
2023-02-22T02:34:22.072Z,18.23
2023-02-22T02:37:41.763Z,18.03
2023-02-22T02:40:57.052Z,19.03
2023-02-22T02:44:11.476Z,18.07
2023-02-22T02:47:21.936Z,18.50
2023-02-22T02:50:33.276Z,19.53
2023-02-22T02:53:43.141Z,18.37
2023-02-22T02:56:48.155Z,19.07
2023-02-22T02:59:52.400Z,19.80
2023-02-22T03:03:18.331Z,18.90
2023-02-22T03:07:00.953Z,17.73
2023-02-22T03:10:44.968Z,18.87
2023-02-22T03:14:00.482Z,19.00
2023-02-22T03:17:16.684Z,20.20
2023-02-22T03:20:32.012Z,17.73
2023-02-22T03:23:46.918Z,20.43
2023-02-22T03:27:00.196Z,17.87
2023-02-22T03:30:13.205Z,19.93
2023-02-22T03:33:28.861Z,19.17
2023-02-22T03:36:39.196Z,19.53
2023-02-22T03:39:47.422Z,20.03
2023-02-22T03:42:59.346Z,18.73
2023-02-22T03:46:05.000Z,18.40
2023-02-22T03:49:15.999Z,19.30
2023-02-22T03:52:23.569Z,19.97
2023-02-22T03:55:31.491Z,21.00
2023-02-22T03:58:39.080Z,20.27
2023-02-22T04:01:43.247Z,19.70
2023-02-22T04:04:47.603Z,19.70
2023-02-22T04:07:51.502Z,19.23
2023-02-22T04:10:56.783Z,20.40
2023-02-22T04:14:00.906Z,19.40
2023-02-22T04:17:04.897Z,19.63
2023-02-22T04:20:09.547Z,20.77
2023-02-22T04:23:13.843Z,19.77
2023-02-22T04:26:19.366Z,20.40
2023-02-22T04:29:23.337Z,20.63
2023-02-22T04:32:27.241Z,21.83
2023-02-22T04:35:31.741Z,22.33
2023-02-22T04:38:36.362Z,20.90
2023-02-22T04:41:41.745Z,22.13
2023-02-22T04:44:45.862Z,21.53
2023-02-22T04:47:49.737Z,20.97
2023-02-22T04:50:53.544Z,21.00
2023-02-22T04:53:57.567Z,20.70
2023-02-22T04:57:02.946Z,20.07
2023-02-22T05:00:10.290Z,19.50
2023-02-22T05:03:15.492Z,20.50
2023-02-22T05:06:19.909Z,21.63
2023-02-22T05:09:23.928Z,20.77
2023-02-22T05:12:30.689Z,20.27
2023-02-22T05:15:34.501Z,20.97
2023-02-22T05:18:38.295Z,20.93
2023-02-22T05:21:42.121Z,20.43
2023-02-22T05:24:45.971Z,21.77
2023-02-22T05:27:53.747Z,21.50
2023-02-22T05:30:57.608Z,20.80
2023-02-22T05:34:01.469Z,21.27
2023-02-22T05:37:05.481Z,21.87
2023-02-22T05:40:10.396Z,21.13
2023-02-22T05:43:16.174Z,20.10
2023-02-22T05:46:19.988Z,20.93
2023-02-22T05:49:23.832Z,21.13
2023-02-22T05:52:27.805Z,20.67
2023-02-22T05:55:31.616Z,21.73
2023-02-22T05:58:37.131Z,21.90
2023-02-22T06:01:40.892Z,21.07
2023-02-22T06:04:46.566Z,20.90
2023-02-22T06:07:50.373Z,21.57
2023-02-22T06:10:54.611Z,23.47
2023-02-22T06:13:59.903Z,23.30
2023-02-22T06:17:05.544Z,23.97
2023-02-22T06:20:11.630Z,23.80
2023-02-22T06:23:15.542Z,23.67
2023-02-22T06:26:20.376Z,21.90
2023-02-22T06:29:25.700Z,23.80
2023-02-22T06:32:29.900Z,24.83
2023-02-22T06:35:33.715Z,24.47
2023-02-22T06:38:37.677Z,23.90
2023-02-22T06:41:42.611Z,22.13
2023-02-22T06:44:49.355Z,23.23
2023-02-22T06:47:53.735Z,22.20
2023-02-22T06:50:57.514Z,22.20
2023-02-22T06:54:01.313Z,22.63
2023-02-22T06:57:05.214Z,21.33
2023-02-22T07:00:12.867Z,19.83
2023-02-22T07:03:17.160Z,20.53
2023-02-22T07:06:21.139Z,20.67
2023-02-22T07:09:24.867Z,22.07
2023-02-22T07:12:28.733Z,22.30
2023-02-22T07:15:35.972Z,20.00
2023-02-22T07:18:39.883Z,20.43
2023-02-22T07:21:43.701Z,20.90
2023-02-22T07:24:47.995Z,20.57
2023-02-22T07:27:52.570Z,20.27
2023-02-22T07:30:57.904Z,20.30
2023-02-22T07:34:01.798Z,21.80
2023-02-22T07:37:05.675Z,21.47
2023-02-22T07:40:10.653Z,20.63
2023-02-22T07:43:20.071Z,21.00
2023-02-22T07:46:25.338Z,21.63
2023-02-22T07:49:29.225Z,20.67
2023-02-22T07:52:32.962Z,19.63
2023-02-22T07:55:36.896Z,20.43
2023-02-22T07:58:40.831Z,20.03
2023-02-22T08:01:46.445Z,21.37
2023-02-22T08:04:50.219Z,20.17
2023-02-22T08:07:54.247Z,19.73
2023-02-22T08:10:58.105Z,20.20
2023-02-22T08:14:01.938Z,20.63
2023-02-22T08:17:08.808Z,20.27
2023-02-22T08:20:13.273Z,18.33
2023-02-22T08:23:19.666Z,19.33
2023-02-22T08:26:25.505Z,17.97
2023-02-22T08:29:33.599Z,18.33
2023-02-22T08:32:38.942Z,18.30
2023-02-22T08:35:42.989Z,18.87
2023-02-22T08:38:46.864Z,16.83
2023-02-22T08:41:50.724Z,15.20
2023-02-22T08:44:54.481Z,16.37
2023-02-22T08:48:00.116Z,14.90
2023-02-22T08:51:04.163Z,14.43
2023-02-22T08:54:08.051Z,12.93
2023-02-22T08:57:11.853Z,15.27
2023-02-22T09:00:17.742Z,14.37
2023-02-22T09:03:23.312Z,13.20
2023-02-22T09:06:27.226Z,13.87
2023-02-22T09:09:31.035Z,13.33
2023-02-22T09:12:34.888Z,13.00
2023-02-22T09:15:40.028Z,13.83
2023-02-22T09:18:45.388Z,14.10
2023-02-22T09:21:55.027Z,12.40
2023-02-22T09:25:02.601Z,12.30
2023-02-22T09:28:11.761Z,11.83
2023-02-22T09:31:15.891Z,12.80
2023-02-22T09:34:28.688Z,13.10
2023-02-22T09:37:32.465Z,12.83
2023-02-22T09:40:45.258Z,12.97
2023-02-22T09:43:57.562Z,12.87
2023-02-22T09:47:01.441Z,13.07
2023-02-22T09:50:15.731Z,11.90
2023-02-22T09:53:30.623Z,12.40
2023-02-22T09:56:35.877Z,14.57
2023-02-22T09:59:46.913Z,12.57
2023-02-22T10:03:06.973Z,13.40
2023-02-22T10:06:17.044Z,12.60
2023-02-22T10:09:21.673Z,13.40
2023-02-22T10:12:36.899Z,12.63
2023-02-22T10:15:55.729Z,12.93
2023-02-22T10:19:19.673Z,13.30
2023-02-22T10:22:49.390Z,12.83
2023-02-22T10:26:00.457Z,13.13
2023-02-22T10:29:14.795Z,13.20
2023-02-22T10:32:28.581Z,12.53
2023-02-22T10:35:37.346Z,13.87
2023-02-22T10:38:55.372Z,13.37
2023-02-22T10:42:06.930Z,13.13
2023-02-22T10:45:25.727Z,13.37
2023-02-22T10:48:36.558Z,13.67
2023-02-22T10:51:40.548Z,12.07
2023-02-22T10:54:52.030Z,14.03
2023-02-22T10:58:06.250Z,13.87
2023-02-22T11:01:27.385Z,13.97
2023-02-22T11:04:49.875Z,13.57
2023-02-22T11:07:54.580Z,12.40
2023-02-22T11:11:05.023Z,13.73
2023-02-22T11:14:10.881Z,14.77
2023-02-22T11:17:28.089Z,12.70
2023-02-22T11:20:38.635Z,14.10
2023-02-22T11:23:45.171Z,12.67
2023-02-22T11:26:56.385Z,14.10
2023-02-22T11:30:29.202Z,13.17
2023-02-22T11:33:33.236Z,12.77
2023-02-22T11:36:44.159Z,12.77
2023-02-22T11:39:48.187Z,13.37
2023-02-22T11:43:12.437Z,12.40
2023-02-22T11:46:21.452Z,12.73
2023-02-22T11:49:35.278Z,13.87
2023-02-22T11:52:50.854Z,13.93
2023-02-22T11:56:14.832Z,13.10
2023-02-22T11:59:36.659Z,11.73
2023-02-22T12:03:40.506Z,13.13
2023-02-22T12:06:58.202Z,12.00
2023-02-22T12:10:19.494Z,13.90
2023-02-22T12:13:37.789Z,14.10
2023-02-22T12:17:07.308Z,13.37
2023-02-22T12:20:24.848Z,13.20
2023-02-22T12:23:44.973Z,13.33
2023-02-22T12:26:55.396Z,13.23
2023-02-22T12:30:06.514Z,12.20
2023-02-22T12:33:20.229Z,13.53
2023-02-22T12:36:35.607Z,12.33
2023-02-22T12:39:56.568Z,13.57
2023-02-22T12:43:07.479Z,13.13
2023-02-22T12:46:19.370Z,13.50
2023-02-22T12:49:36.007Z,12.40
2023-02-22T12:52:51.608Z,12.70
2023-02-22T12:56:06.307Z,12.50
2023-02-22T12:59:21.845Z,11.93
2023-02-22T13:02:36.665Z,13.00
2023-02-22T13:05:43.342Z,14.23
2023-02-22T13:09:07.027Z,13.17
2023-02-22T13:12:19.949Z,13.67
2023-02-22T13:15:34.128Z,12.23
2023-02-22T13:18:49.073Z,12.80
2023-02-22T13:22:04.240Z,13.13
2023-02-22T13:25:16.216Z,13.27
2023-02-22T13:28:33.059Z,13.50
2023-02-22T13:32:02.798Z,13.03
2023-02-22T13:35:56.503Z,13.00
2023-02-22T13:39:32.631Z,12.87
2023-02-22T13:43:05.677Z,13.00
2023-02-22T13:46:47.703Z,12.33
2023-02-22T13:50:53.896Z,13.77
2023-02-22T13:54:05.908Z,12.53
2023-02-22T13:57:24.925Z,13.27
2023-02-22T14:00:47.494Z,13.27
2023-02-22T14:03:51.328Z,13.37
2023-02-22T14:06:55.648Z,12.57
2023-02-22T14:10:01.860Z,13.03
2023-02-22T14:13:10.147Z,12.20
2023-02-22T14:16:25.746Z,13.67
2023-02-22T14:19:29.715Z,13.00
2023-02-22T14:22:34.556Z,12.73
2023-02-22T14:25:43.048Z,12.93
2023-02-22T14:28:59.467Z,13.37
2023-02-22T14:32:10.725Z,13.10
2023-02-22T14:35:27.350Z,12.93
2023-02-22T14:38:32.677Z,12.73
2023-02-22T14:41:41.854Z,13.40
2023-02-22T14:45:01.102Z,13.83
2023-02-22T14:48:20.484Z,13.00
2023-02-22T14:51:29.882Z,12.40
2023-02-22T14:54:42.336Z,12.90
2023-02-22T14:58:01.619Z,14.30
2023-02-22T15:01:33.851Z,12.13
2023-02-22T15:04:44.211Z,13.03
2023-02-22T15:07:58.137Z,14.73
2023-02-22T15:11:03.678Z,12.43
2023-02-22T15:14:26.153Z,13.43
2023-02-22T15:17:32.065Z,13.33
2023-02-22T15:20:38.666Z,13.90
2023-02-22T15:23:47.105Z,12.57
2023-02-22T15:27:01.341Z,12.87
2023-02-22T15:30:16.677Z,12.43
2023-02-22T15:33:24.774Z,12.73
2023-02-22T15:36:31.906Z,12.97
2023-02-22T15:39:43.895Z,13.77
2023-02-22T15:42:53.159Z,14.33
2023-02-22T15:45:57.576Z,20.27
2023-02-22T15:49:24.563Z,21.10
2023-02-22T15:52:29.273Z,65.03
2023-02-22T15:55:38.286Z,46.33
2023-02-22T15:58:43.532Z,28.70
2023-02-22T16:01:53.240Z,38.57
2023-02-22T16:05:06.608Z,33.70
2023-02-22T16:08:19.080Z,34.93
2023-02-22T16:11:30.177Z,38.90
2023-02-22T16:14:45.025Z,43.93
2023-02-22T16:18:01.522Z,38.87
2023-02-22T16:21:13.273Z,64.97
2023-02-22T16:24:28.214Z,57.60
2023-02-22T16:27:47.534Z,45.70
2023-02-22T16:30:59.299Z,33.70
2023-02-22T16:34:05.312Z,64.03
2023-02-22T16:37:23.438Z,34.27
2023-02-22T16:40:34.558Z,18.80
2023-02-22T16:43:38.884Z,23.60
2023-02-22T16:46:43.110Z,17.60
2023-02-22T16:49:49.091Z,18.53
2023-02-22T16:52:58.808Z,18.23
2023-02-22T16:56:06.875Z,18.87
2023-02-22T16:59:16.519Z,20.03
2023-02-22T17:02:22.764Z,27.37
2023-02-22T17:05:26.665Z,20.93
2023-02-22T17:08:32.640Z,30.50
2023-02-22T17:11:37.680Z,24.07
2023-02-22T17:14:42.219Z,24.03
2023-02-22T17:17:46.067Z,21.93
2023-02-22T17:20:51.146Z,19.97
2023-02-22T17:23:56.265Z,16.47
2023-02-22T17:27:00.098Z,22.37
2023-02-22T17:30:04.901Z,26.13
2023-02-22T17:33:10.310Z,19.80
2023-02-22T17:36:14.165Z,24.47
2023-02-22T17:39:19.420Z,30.03
2023-02-22T17:42:23.187Z,27.07
2023-02-22T17:45:27.492Z,25.37
2023-02-22T17:48:32.533Z,24.60
2023-02-22T17:51:38.360Z,17.60
2023-02-22T17:54:43.823Z,19.47
2023-02-22T17:57:49.471Z,17.77
2023-02-22T18:00:59.371Z,18.93
2023-02-22T18:04:05.461Z,33.37
2023-02-22T18:07:09.160Z,15.67
2023-02-22T18:10:15.391Z,15.77
2023-02-22T18:13:19.404Z,18.90
2023-02-22T18:16:25.648Z,19.90
2023-02-22T18:19:29.770Z,16.93
2023-02-22T18:22:34.088Z,17.43
2023-02-22T18:25:41.613Z,15.80
2023-02-22T18:28:48.893Z,13.43
2023-02-22T18:31:54.474Z,15.97
2023-02-22T18:34:58.399Z,18.07
2023-02-22T18:38:02.460Z,14.93
2023-02-22T18:41:10.039Z,15.53
2023-02-22T18:44:14.002Z,14.27
2023-02-22T18:47:25.373Z,15.63
2023-02-22T18:50:30.021Z,24.30
2023-02-22T18:53:34.471Z,15.60
2023-02-22T18:56:40.739Z,14.43
2023-02-22T18:59:45.222Z,14.20
2023-02-22T19:02:49.384Z,15.00
2023-02-22T19:05:54.315Z,13.50
2023-02-22T19:09:08.003Z,13.57
2023-02-22T19:12:17.277Z,14.87
2023-02-22T19:15:21.532Z,15.60
2023-02-22T19:18:25.908Z,13.93
2023-02-22T19:21:32.740Z,15.77
2023-02-22T19:24:36.683Z,14.90
2023-02-22T19:27:44.569Z,15.17
2023-02-22T19:30:48.656Z,16.87
2023-02-22T19:33:52.421Z,18.90
2023-02-22T19:36:58.453Z,18.77
2023-02-22T19:40:03.771Z,18.67
2023-02-22T19:43:09.197Z,15.63
2023-02-22T19:46:13.506Z,14.17
2023-02-22T19:49:18.063Z,14.27
2023-02-22T19:52:21.921Z,13.57
2023-02-22T19:55:32.291Z,13.10
2023-02-22T19:58:38.975Z,14.90
2023-02-22T20:01:45.319Z,15.13
2023-02-22T20:04:51.421Z,14.60
2023-02-22T20:07:55.381Z,15.40
2023-02-22T20:11:00.045Z,13.93
2023-02-22T20:14:06.772Z,12.97
2023-02-22T20:17:10.640Z,13.50
2023-02-22T20:20:15.169Z,15.43
2023-02-22T20:23:19.562Z,14.17
2023-02-22T20:26:26.965Z,13.87
2023-02-22T20:29:32.543Z,16.73
2023-02-22T20:32:38.114Z,18.20
2023-02-22T20:35:42.047Z,18.83
2023-02-22T20:38:47.140Z,17.97
2023-02-22T20:41:50.956Z,20.47
2023-02-22T20:45:01.979Z,15.67
2023-02-22T20:48:07.070Z,16.33
2023-02-22T20:51:14.474Z,17.00
2023-02-22T20:54:20.221Z,16.33
2023-02-22T20:57:24.069Z,15.63
2023-02-22T21:00:29.220Z,13.30
2023-02-22T21:03:34.776Z,14.03
2023-02-22T21:06:40.424Z,14.50
2023-02-22T21:09:44.749Z,15.67
2023-02-22T21:12:50.140Z,16.63
2023-02-22T21:15:56.841Z,17.00
2023-02-22T21:19:03.974Z,17.77
2023-02-22T21:22:08.871Z,15.87
2023-02-22T21:25:14.169Z,16.77
2023-02-22T21:28:18.111Z,14.67
2023-02-22T21:31:25.809Z,14.80
2023-02-22T21:34:29.951Z,15.83
2023-02-22T21:37:34.626Z,18.47
2023-02-22T21:40:38.365Z,19.33
2023-02-22T21:43:42.838Z,17.53
2023-02-22T21:46:49.953Z,19.57
2023-02-22T21:49:53.783Z,19.30
2023-02-22T21:52:58.004Z,33.80
2023-02-22T21:56:06.278Z,93.87
2023-02-22T21:59:14.847Z,67.70
2023-02-22T22:02:22.089Z,117.90
2023-02-22T22:05:33.561Z,62.73
2023-02-22T22:08:40.821Z,51.43
2023-02-22T22:11:46.202Z,43.43
2023-02-22T22:14:50.645Z,38.20
2023-02-22T22:17:59.514Z,36.17
2023-02-22T22:21:10.802Z,92.17
2023-02-22T22:24:15.279Z,54.10
2023-02-22T22:27:19.089Z,58.20
2023-02-22T22:30:23.725Z,46.23
2023-02-22T22:33:29.377Z,28.97
2023-02-22T22:36:34.481Z,26.63
2023-02-22T22:39:38.654Z,34.50
2023-02-22T22:42:42.674Z,27.50
2023-02-22T22:45:46.497Z,36.73
2023-02-22T22:48:51.821Z,33.93
2023-02-22T22:51:55.541Z,20.13
2023-02-22T22:55:00.757Z,16.87
2023-02-22T22:58:04.998Z,17.93
2023-02-22T23:01:17.910Z,27.03
2023-02-22T23:04:25.561Z,20.53
2023-02-22T23:07:29.427Z,55.23
2023-02-22T23:10:33.810Z,28.73
2023-02-22T23:13:38.132Z,53.43
2023-02-22T23:16:42.881Z,39.73
2023-02-22T23:19:48.636Z,31.13
2023-02-22T23:22:54.679Z,22.47
2023-02-22T23:26:11.787Z,16.50
2023-02-22T23:29:15.716Z,17.63
2023-02-22T23:32:19.562Z,15.37
2023-02-22T23:35:26.018Z,13.90
2023-02-22T23:38:29.973Z,13.03
2023-02-22T23:41:36.532Z,12.67
2023-02-22T23:44:40.658Z,10.83
2023-02-22T23:47:44.549Z,13.50
2023-02-22T23:50:51.409Z,14.47
2023-02-22T23:53:56.802Z,14.47
2023-02-22T23:57:02.517Z,15.33
